createdAt,value
2019-03-23T00:00:50.828Z,19.32
2019-03-23T00:15:50.652Z,20.95
2019-03-23T00:30:50.721Z,19.70
2019-03-23T00:45:50.599Z,21.37
2019-03-23T01:00:51.442Z,24.45
2019-03-23T01:15:51.341Z,25.23
2019-03-23T01:30:51.307Z,24.27
2019-03-23T01:45:51.307Z,27.22
2019-03-23T02:00:50.585Z,24.87
2019-03-23T02:15:50.533Z,20.37
2019-03-23T02:30:50.570Z,20.48
2019-03-23T02:45:51.490Z,21.25
2019-03-23T03:00:56.699Z,21.52
2019-03-23T03:15:50.996Z,19.75
2019-03-23T03:30:53.450Z,21.27
2019-03-23T03:45:51.413Z,26.10
2019-03-23T04:15:50.913Z,27.42
2019-03-23T04:30:51.376Z,23.32
2019-03-23T04:45:50.792Z,19.55
2019-03-23T05:00:51.180Z,23.27
2019-03-23T05:15:51.286Z,33.20
2019-03-23T05:30:51.327Z,32.78
2019-03-23T05:45:51.282Z,29.48
2019-03-23T06:00:51.228Z,31.80
2019-03-23T06:15:50.825Z,33.65
2019-03-23T06:30:52.490Z,24.10
2019-03-23T06:45:51.902Z,27.82
2019-03-23T07:00:51.441Z,29.65
2019-03-23T07:15:53.418Z,21.02
2019-03-23T07:30:50.768Z,22.87
2019-03-23T07:45:50.696Z,22.02
2019-03-23T08:00:50.730Z,22.22
2019-03-23T08:15:50.958Z,17.80
2019-03-23T08:30:50.877Z,15.93
2019-03-23T08:45:50.913Z,16.65
2019-03-23T09:00:50.911Z,15.45
2019-03-23T09:15:51.253Z,13.30
2019-03-23T09:30:51.110Z,12.55
2019-03-23T09:45:51.085Z,14.35
2019-03-23T10:00:51.069Z,11.60
2019-03-23T10:15:51.343Z,10.68
2019-03-23T10:30:51.321Z,10.45
2019-03-23T10:45:51.363Z,10.65
2019-03-23T11:00:53.361Z,12.18
2019-03-23T11:15:50.676Z,10.98
2019-03-23T11:30:50.515Z,12.68
2019-03-23T11:45:50.193Z,13.30
2019-03-23T12:00:50.600Z,12.33
2019-03-23T12:15:50.911Z,12.10
2019-03-23T12:30:50.901Z,12.23
2019-03-23T12:45:50.880Z,11.85
2019-03-23T13:00:50.899Z,12.80
2019-03-23T13:15:51.287Z,11.28
2019-03-23T13:30:51.412Z,7.03
2019-03-23T13:45:51.177Z,11.33
2019-03-23T14:00:51.082Z,10.43
2019-03-23T14:15:51.415Z,12.53
2019-03-23T14:30:54.423Z,8.58
2019-03-23T14:45:58.876Z,7.90
2019-03-23T15:00:51.757Z,5.67
2019-03-23T15:15:50.886Z,6.75
2019-03-23T15:30:51.438Z,6.87
2019-03-23T15:45:54.697Z,7.20
2019-03-23T16:15:54.159Z,8.95
2019-03-23T16:30:51.284Z,10.08
2019-03-23T16:45:55.521Z,8.75
2019-03-23T17:00:57.244Z,10.00
2019-03-23T17:30:54.518Z,10.75
2019-03-23T17:45:51.458Z,11.60
2019-03-23T18:00:54.611Z,14.58
2019-03-23T18:15:51.345Z,23.42
2019-03-23T18:30:51.772Z,17.65
2019-03-23T18:45:53.796Z,23.73
2019-03-23T19:00:53.653Z,28.25
2019-03-23T19:30:56.724Z,39.58
2019-03-23T19:45:52.375Z,41.70
2019-03-23T20:00:50.942Z,31.15
2019-03-23T20:15:50.858Z,31.65
2019-03-23T20:30:59.619Z,28.32
2019-03-23T20:45:50.576Z,24.85
2019-03-23T21:00:49.993Z,25.85
2019-03-23T21:15:51.130Z,29.00
2019-03-23T21:30:57.237Z,29.70
2019-03-23T21:45:51.112Z,22.73
2019-03-23T22:00:51.013Z,29.23
2019-03-23T22:15:57.084Z,29.07
2019-03-23T22:30:52.956Z,26.17
2019-03-23T22:45:50.923Z,26.95
2019-03-23T23:00:51.261Z,24.05
2019-03-23T23:15:51.277Z,19.37
2019-03-23T23:30:54.131Z,20.62
2019-03-23T23:45:57.169Z,19.00
